Metar Aviation Weather Data KPWM

36°F Temp
30°F Dewpoint
% Humidity
Temperature
6 MPH
10 KM/H
5 KTS
20°
North North
East

Wind Speed
Partly Cloudy
Conditions
Pressure 1002.42 (hPa) - 29.6 (in)
Visibility 10.0 (mi) - 16 (km)

Current Conditions
KPWM
Metar :KPWM 080951Z 02005KT 10SM FEW035 BKN200 02/M01 A2960 RMK AO2 SLP022 T00171006
Wed 8th April 05:51 am

  Metar Aviation API Data Provided by https://www.checkwx.com/ PHP scripts by weather34.com ©2020